sensor_id;sensor_type;location;lat;lon;timestamp;pressure;altitude;pressure_sealevel;temperature;humidity
7802;BME280;3945;48.952;9.506;2023-02-18T00:02:13;98823.09;;;12.09;80.82
7802;BME280;3945;48.952;9.506;2023-02-18T00:04:39;98813.81;;;12.11;80.59
7802;BME280;3945;48.952;9.506;2023-02-18T00:07:05;98809.06;;;12.13;81.21
7802;BME280;3945;48.952;9.506;2023-02-18T00:09:32;98809.28;;;12.12;80.68
7802;BME280;3945;48.952;9.506;2023-02-18T00:11:58;98800.84;;;12.15;80.48
7802;BME280;3945;48.952;9.506;2023-02-18T00:14:26;98807.81;;;12.16;80.47
7802;BME280;3945;48.952;9.506;2023-02-18T00:16:52;98808.16;;;12.20;80.48
7802;BME280;3945;48.952;9.506;2023-02-18T00:19:18;98800.13;;;12.20;80.40
7802;BME280;3945;48.952;9.506;2023-02-18T00:21:45;98800.72;;;12.22;80.81
7802;BME280;3945;48.952;9.506;2023-02-18T00:24:12;98795.41;;;12.22;80.41
7802;BME280;3945;48.952;9.506;2023-02-18T00:26:40;98804.44;;;12.21;80.70
7802;BME280;3945;48.952;9.506;2023-02-18T00:29:06;98804.66;;;12.19;81.02
7802;BME280;3945;48.952;9.506;2023-02-18T00:31:35;98806.50;;;12.19;80.61
7802;BME280;3945;48.952;9.506;2023-02-18T00:34:02;98807.81;;;12.16;80.69
7802;BME280;3945;48.952;9.506;2023-02-18T00:36:29;98802.09;;;12.12;81.09
7802;BME280;3945;48.952;9.506;2023-02-18T00:38:57;98798.84;;;12.10;81.24
7802;BME280;3945;48.952;9.506;2023-02-18T00:41:25;98794.31;;;12.11;81.19
7802;BME280;3945;48.952;9.506;2023-02-18T00:43:51;98793.50;;;12.10;81.17
7802;BME280;3945;48.952;9.506;2023-02-18T00:46:18;98788.16;;;12.10;80.53
7802;BME280;3945;48.952;9.506;2023-02-18T00:48:46;98789.22;;;12.09;81.04
7802;BME280;3945;48.952;9.506;2023-02-18T00:51:12;98781.69;;;12.06;81.13
7802;BME280;3945;48.952;9.506;2023-02-18T00:53:39;98791.53;;;12.06;81.07
7802;BME280;3945;48.952;9.506;2023-02-18T00:56:05;98788.88;;;12.06;81.30
7802;BME280;3945;48.952;9.506;2023-02-18T00:58:32;98798.13;;;12.03;81.75
7802;BME280;3945;48.952;9.506;2023-02-18T01:00:59;98799.41;;;12.01;81.81
7802;BME280;3945;48.952;9.506;2023-02-18T01:03:25;98796.53;;;12.02;82.02
7802;BME280;3945;48.952;9.506;2023-02-18T01:05:53;98801.28;;;12.00;81.73
7802;BME280;3945;48.952;9.506;2023-02-18T01:08:20;98797.56;;;12.01;81.45
7802;BME280;3945;48.952;9.506;2023-02-18T01:10:47;98804.53;;;12.02;81.63
7802;BME280;3945;48.952;9.506;2023-02-18T01:13:14;98790.38;;;12.02;82.14
7802;BME280;3945;48.952;9.506;2023-02-18T01:15:41;98795.94;;;12.00;82.02
7802;BME280;3945;48.952;9.506;2023-02-18T01:18:08;98787.34;;;11.98;81.95
7802;BME280;3945;48.952;9.506;2023-02-18T01:20:34;98777.25;;;12.00;81.80
7802;BME280;3945;48.952;9.506;2023-02-18T01:23:03;98790.94;;;12.04;81.33
7802;BME280;3945;48.952;9.506;2023-02-18T01:25:29;98794.19;;;12.06;81.65
7802;BME280;3945;48.952;9.506;2023-02-18T01:27:56;98787.44;;;12.03;81.48
7802;BME280;3945;48.952;9.506;2023-02-18T01:30:22;98788.03;;;12.05;81.70
7802;BME280;3945;48.952;9.506;2023-02-18T01:32:49;98790.50;;;12.07;81.37
7802;BME280;3945;48.952;9.506;2023-02-18T01:35:16;98784.94;;;12.08;81.51
7802;BME280;3945;48.952;9.506;2023-02-18T01:37:42;98782.03;;;12.10;81.47
7802;BME280;3945;48.952;9.506;2023-02-18T01:40:11;98781.69;;;12.06;81.44
7802;BME280;3945;48.952;9.506;2023-02-18T01:42:38;98777.84;;;12.02;81.75
7802;BME280;3945;48.952;9.506;2023-02-18T01:47:49;98784.00;;;12.03;82.35
7802;BME280;3945;48.952;9.506;2023-02-18T01:50:15;98779.09;;;12.00;82.08
7802;BME280;3945;48.952;9.506;2023-02-18T01:52:41;98770.50;;;11.98;82.32
7802;BME280;3945;48.952;9.506;2023-02-18T01:55:08;98777.13;;;11.95;82.14
7802;BME280;3945;48.952;9.506;2023-02-18T01:57:35;98776.19;;;11.90;82.36
7802;BME280;3945;48.952;9.506;2023-02-18T02:00:04;98765.41;;;11.96;81.61
7802;BME280;3945;48.952;9.506;2023-02-18T02:02:31;98769.91;;;11.96;81.90
7802;BME280;3945;48.952;9.506;2023-02-18T02:05:00;98768.06;;;11.96;81.98
7802;BME280;3945;48.952;9.506;2023-02-18T02:07:26;98757.66;;;11.95;81.69
7802;BME280;3945;48.952;9.506;2023-02-18T02:09:53;98764.03;;;11.94;81.73
7802;BME280;3945;48.952;9.506;2023-02-18T02:12:28;98750.91;;;11.92;81.59
7802;BME280;3945;48.952;9.506;2023-02-18T02:15:07;98758.31;;;11.90;81.84
7802;BME280;3945;48.952;9.506;2023-02-18T02:17:37;98758.78;;;11.87;82.28
7802;BME280;3945;48.952;9.506;2023-02-18T02:20:27;98752.66;;;11.87;82.27
7802;BME280;3945;48.952;9.506;2023-02-18T02:23:10;98746.84;;;11.90;81.90
7802;BME280;3945;48.952;9.506;2023-02-18T02:25:50;98747.09;;;11.88;82.39
7802;BME280;3945;48.952;9.506;2023-02-18T02:31:21;98746.03;;;11.89;82.02
7802;BME280;3945;48.952;9.506;2023-02-18T02:33:58;98746.38;;;11.93;81.67
7802;BME280;3945;48.952;9.506;2023-02-18T02:36:33;98742.31;;;11.90;81.76
7802;BME280;3945;48.952;9.506;2023-02-18T02:39:03;98748.25;;;11.92;81.88
7802;BME280;3945;48.952;9.506;2023-02-18T02:41:38;98741.88;;;11.93;81.51
7802;BME280;3945;48.952;9.506;2023-02-18T02:44:11;98739.69;;;12.02;81.34
7802;BME280;3945;48.952;9.506;2023-02-18T02:46:42;98740.34;;;11.97;81.55
7802;BME280;3945;48.952;9.506;2023-02-18T02:49:12;98734.09;;;11.92;81.53
7802;BME280;3945;48.952;9.506;2023-02-18T02:51:42;98735.94;;;11.91;82.10
7802;BME280;3945;48.952;9.506;2023-02-18T02:54:13;98740.94;;;11.88;81.95
7802;BME280;3945;48.952;9.506;2023-02-18T02:56:39;98732.94;;;11.88;82.02
7802;BME280;3945;48.952;9.506;2023-02-18T02:59:07;98731.09;;;11.88;81.81
7802;BME280;3945;48.952;9.506;2023-02-18T03:01:35;98735.00;;;11.86;82.00
7802;BME280;3945;48.952;9.506;2023-02-18T03:04:17;98724.69;;;11.89;81.88
7802;BME280;3945;48.952;9.506;2023-02-18T03:06:56;98732.94;;;11.88;82.24
7802;BME280;3945;48.952;9.506;2023-02-18T03:09:27;98725.38;;;11.85;81.79
7802;BME280;3945;48.952;9.506;2023-02-18T03:12:00;98721.69;;;11.86;81.83
7802;BME280;3945;48.952;9.506;2023-02-18T03:14:32;98712.63;;;11.87;82.13
7802;BME280;3945;48.952;9.506;2023-02-18T03:17:01;98713.56;;;11.81;81.89
7802;BME280;3945;48.952;9.506;2023-02-18T03:19:31;98709.81;;;11.82;81.88
7802;BME280;3945;48.952;9.506;2023-02-18T03:22:00;98706.81;;;11.78;82.12
7802;BME280;3945;48.952;9.506;2023-02-18T03:24:29;98703.34;;;11.78;82.66
7802;BME280;3945;48.952;9.506;2023-02-18T03:26:58;98704.16;;;11.78;82.34
7802;BME280;3945;48.952;9.506;2023-02-18T03:29:26;98700.66;;;11.78;82.22
7802;BME280;3945;48.952;9.506;2023-02-18T03:31:54;98692.09;;;11.76;82.49
7802;BME280;3945;48.952;9.506;2023-02-18T03:34:24;98699.50;;;11.73;82.51
7802;BME280;3945;48.952;9.506;2023-02-18T03:36:51;98697.84;;;11.72;82.60
7802;BME280;3945;48.952;9.506;2023-02-18T03:39:20;98705.66;;;11.74;82.54
7802;BME280;3945;48.952;9.506;2023-02-18T03:41:49;98706.44;;;11.74;81.59
7802;BME280;3945;48.952;9.506;2023-02-18T03:44:15;98701.34;;;11.73;82.22
7802;BME280;3945;48.952;9.506;2023-02-18T03:46:42;98706.44;;;11.74;82.03
7802;BME280;3945;48.952;9.506;2023-02-18T03:49:09;98700.66;;;11.78;81.44
7802;BME280;3945;48.952;9.506;2023-02-18T03:51:36;98699.03;;;11.77;81.36
7802;BME280;3945;48.952;9.506;2023-02-18T03:54:02;98705.41;;;11.76;81.42
7802;BME280;3945;48.952;9.506;2023-02-18T03:56:30;98702.75;;;11.76;81.87
7802;BME280;3945;48.952;9.506;2023-02-18T03:58:56;98695.78;;;11.74;81.98
7802;BME280;3945;48.952;9.506;2023-02-18T04:01:23;98702.75;;;11.76;82.06
7802;BME280;3945;48.952;9.506;2023-02-18T04:03:49;98705.03;;;11.72;82.09
7802;BME280;3945;48.952;9.506;2023-02-18T04:06:17;98708.97;;;11.69;82.46
7802;BME280;3945;48.952;9.506;2023-02-18T04:08:43;98708.16;;;11.69;82.34
7802;BME280;3945;48.952;9.506;2023-02-18T04:11:09;98700.84;;;11.64;82.64
7802;BME280;3945;48.952;9.506;2023-02-18T04:13:37;98694.09;;;11.62;82.38
7802;BME280;3945;48.952;9.506;2023-02-18T04:16:03;98688.44;;;11.58;83.07
7802;BME280;3945;48.952;9.506;2023-02-18T04:18:30;98684.25;;;11.62;82.39
7802;BME280;3945;48.952;9.506;2023-02-18T04:20:56;98686.72;;;11.64;82.46
7802;BME280;3945;48.952;9.506;2023-02-18T04:23:22;98682.19;;;11.64;82.88
7802;BME280;3945;48.952;9.506;2023-02-18T04:25:49;98687.75;;;11.63;82.67
7802;BME280;3945;48.952;9.506;2023-02-18T04:28:15;98679.75;;;11.63;82.61
7802;BME280;3945;48.952;9.506;2023-02-18T04:30:43;98674.06;;;11.59;82.40
7802;BME280;3945;48.952;9.506;2023-02-18T04:33:10;98670.59;;;11.59;82.67
7802;BME280;3945;48.952;9.506;2023-02-18T04:35:36;98674.06;;;11.59;82.58
7802;BME280;3945;48.952;9.506;2023-02-18T04:38:04;98684.47;;;11.61;82.47
7802;BME280;3945;48.952;9.506;2023-02-18T04:40:31;98677.78;;;11.58;82.27
7802;BME280;3945;48.952;9.506;2023-02-18T04:42:57;98679.41;;;11.59;82.50
7802;BME280;3945;48.952;9.506;2023-02-18T04:45:24;98679.16;;;11.61;82.41
7802;BME280;3945;48.952;9.506;2023-02-18T04:47:52;98689.25;;;11.59;82.80
7802;BME280;3945;48.952;9.506;2023-02-18T04:50:19;98692.97;;;11.58;83.05
7802;BME280;3945;48.952;9.506;2023-02-18T04:52:45;98683.56;;;11.55;82.94
7802;BME280;3945;48.952;9.506;2023-02-18T04:55:12;98692.59;;;11.54;82.96
7802;BME280;3945;48.952;9.506;2023-02-18T04:57:38;98693.88;;;11.52;82.65
7802;BME280;3945;48.952;9.506;2023-02-18T05:00:05;98691.44;;;11.50;83.57
7802;BME280;3945;48.952;9.506;2023-02-18T05:02:32;98695.47;;;11.53;83.07
7802;BME280;3945;48.952;9.506;2023-02-18T05:05:00;98694.91;;;11.51;82.90
7802;BME280;3945;48.952;9.506;2023-02-18T05:07:26;98696.53;;;11.52;82.59
7802;BME280;3945;48.952;9.506;2023-02-18T05:09:53;98696.53;;;11.52;82.86
7802;BME280;3945;48.952;9.506;2023-02-18T05:12:19;98703.13;;;11.49;82.67
7802;BME280;3945;48.952;9.506;2023-02-18T05:14:45;98700.91;;;11.46;82.98
7802;BME280;3945;48.952;9.506;2023-02-18T05:17:12;98701.50;;;11.48;83.19
7802;BME280;3945;48.952;9.506;2023-02-18T05:19:38;98699.88;;;11.47;83.15
7802;BME280;3945;48.952;9.506;2023-02-18T05:22:06;98700.09;;;11.46;83.03
7802;BME280;3945;48.952;9.506;2023-02-18T05:24:33;98699.31;;;11.45;83.28
7802;BME280;3945;48.952;9.506;2023-02-18T05:26:59;98691.53;;;11.44;83.38
7802;BME280;3945;48.952;9.506;2023-02-18T05:29:25;98680.88;;;11.44;83.24
7802;BME280;3945;48.952;9.506;2023-02-18T05:31:52;98679.22;;;11.43;83.08
7802;BME280;3945;48.952;9.506;2023-02-18T05:34:18;98681.31;;;11.41;83.08
7802;BME280;3945;48.952;9.506;2023-02-18T05:36:44;98680.72;;;11.39;83.34
7802;BME280;3945;48.952;9.506;2023-02-18T05:39:12;98682.59;;;11.38;83.29
7802;BME280;3945;48.952;9.506;2023-02-18T05:41:38;98679.13;;;11.38;83.14
7802;BME280;3945;48.952;9.506;2023-02-18T05:44:04;98689.41;;;11.34;83.18
7802;BME280;3945;48.952;9.506;2023-02-18T05:46:48;98678.97;;;11.32;83.36
7802;BME280;3945;48.952;9.506;2023-02-18T05:49:15;98683.47;;;11.32;83.27
7802;BME280;3945;48.952;9.506;2023-02-18T05:51:41;98686.38;;;11.30;83.64
7802;BME280;3945;48.952;9.506;2023-02-18T05:54:07;98682.44;;;11.33;83.43
7802;BME280;3945;48.952;9.506;2023-02-18T05:56:35;98683.34;;;11.27;83.70
7802;BME280;3945;48.952;9.506;2023-02-18T05:59:01;98669.00;;;11.28;83.63
7802;BME280;3945;48.952;9.506;2023-02-18T06:01:28;98682.75;;;11.25;83.19
7802;BME280;3945;48.952;9.506;2023-02-18T06:03:55;98672.09;;;11.25;83.16
7802;BME280;3945;48.952;9.506;2023-02-18T06:06:21;98678.72;;;11.22;83.20
7802;BME280;3945;48.952;9.506;2023-02-18T06:08:47;98668.28;;;11.21;83.26
7802;BME280;3945;48.952;9.506;2023-02-18T06:11:13;98671.53;;;11.23;83.18
7802;BME280;3945;48.952;9.506;2023-02-18T06:13:41;98679.53;;;11.23;82.94
7802;BME280;3945;48.952;9.506;2023-02-18T06:16:07;98679.97;;;11.20;83.11
7802;BME280;3945;48.952;9.506;2023-02-18T06:18:34;98687.50;;;11.23;82.67
7802;BME280;3945;48.952;9.506;2023-02-18T06:21:00;98691.22;;;11.22;83.11
7802;BME280;3945;48.952;9.506;2023-02-18T06:23:26;98688.09;;;11.25;82.68
7802;BME280;3945;48.952;9.506;2023-02-18T06:25:53;98681.06;;;11.30;82.34
7802;BME280;3945;48.952;9.506;2023-02-18T06:28:19;98683.72;;;11.30;82.42
7802;BME280;3945;48.952;9.506;2023-02-18T06:30:47;98690.31;;;11.28;82.29
7802;BME280;3945;48.952;9.506;2023-02-18T06:33:14;98691.94;;;11.29;82.46
7802;BME280;3945;48.952;9.506;2023-02-18T06:35:40;98698.06;;;11.29;82.57
7802;BME280;3945;48.952;9.506;2023-02-18T06:38:07;98697.25;;;11.29;82.46
7802;BME280;3945;48.952;9.506;2023-02-18T06:40:33;98687.16;;;11.31;82.37
7802;BME280;3945;48.952;9.506;2023-02-18T06:43:00;98686.50;;;11.35;82.20
7802;BME280;3945;48.952;9.506;2023-02-18T06:45:26;98681.84;;;11.31;82.58
7802;BME280;3945;48.952;9.506;2023-02-18T06:47:53;98688.81;;;11.32;82.57
7802;BME280;3945;48.952;9.506;2023-02-18T06:50:20;98686.94;;;11.32;82.32
7802;BME280;3945;48.952;9.506;2023-02-18T06:52:46;98676.88;;;11.34;82.20
7802;BME280;3945;48.952;9.506;2023-02-18T06:55:12;98674.22;;;11.34;82.59
7802;BME280;3945;48.952;9.506;2023-02-18T06:57:39;98667.25;;;11.33;83.03
7802;BME280;3945;48.952;9.506;2023-02-18T07:00:05;98672.16;;;11.37;82.58
7802;BME280;3945;48.952;9.506;2023-02-18T07:02:32;98666.22;;;11.34;82.79
7802;BME280;3945;48.952;9.506;2023-02-18T07:05:00;98673.19;;;11.35;82.36
7802;BME280;3945;48.952;9.506;2023-02-18T07:07:26;98674.44;;;11.33;83.24
7802;BME280;3945;48.952;9.506;2023-02-18T07:09:52;98682.59;;;11.38;82.40
7802;BME280;3945;48.952;9.506;2023-02-18T07:12:19;98684.44;;;11.38;82.72
7802;BME280;3945;48.952;9.506;2023-02-18T07:14:45;98675.38;;;11.39;82.49
7802;BME280;3945;48.952;9.506;2023-02-18T07:17:11;98678.28;;;11.37;82.99
7802;BME280;3945;48.952;9.506;2023-02-18T07:19:38;98682.34;;;11.40;83.14
7802;BME280;3945;48.952;9.506;2023-02-18T07:22:06;98670.88;;;11.39;83.08
7802;BME280;3945;48.952;9.506;2023-02-18T07:24:32;98672.28;;;11.42;83.05
7802;BME280;3945;48.952;9.506;2023-02-18T07:26:59;98659.75;;;11.42;82.37
7802;BME280;3945;48.952;9.506;2023-02-18T07:29:25;98657.44;;;11.46;82.79
7802;BME280;3945;48.952;9.506;2023-02-18T07:31:51;98652.09;;;11.46;83.18
7802;BME280;3945;48.952;9.506;2023-02-18T07:34:18;98662.78;;;11.46;83.29
7802;BME280;3945;48.952;9.506;2023-02-18T07:36:44;98655.97;;;11.50;82.99
7802;BME280;3945;48.952;9.506;2023-02-18T07:39:12;98651.44;;;11.50;82.62
7802;BME280;3945;48.952;9.506;2023-02-18T07:41:38;98643.56;;;11.55;82.80
7802;BME280;3945;48.952;9.506;2023-02-18T07:44:05;98637.19;;;11.56;82.90
7802;BME280;3945;48.952;9.506;2023-02-18T07:46:31;98647.63;;;11.58;82.88
7802;BME280;3945;48.952;9.506;2023-02-18T07:48:57;98639.53;;;11.64;81.85
7802;BME280;3945;48.952;9.506;2023-02-18T07:51:24;98640.13;;;11.66;82.23
7802;BME280;3945;48.952;9.506;2023-02-18T07:53:50;98638.94;;;11.62;81.93
7802;BME280;3945;48.952;9.506;2023-02-18T07:56:17;98635.34;;;11.68;81.67
7802;BME280;3945;48.952;9.506;2023-02-18T07:58:44;98633.50;;;11.69;81.63
7802;BME280;3945;48.952;9.506;2023-02-18T08:01:11;98628.91;;;11.76;80.86
7802;BME280;3945;48.952;9.506;2023-02-18T08:03:39;98633.19;;;11.77;80.66
7802;BME280;3945;48.952;9.506;2023-02-18T08:06:05;98624.16;;;11.78;80.75
7802;BME280;3945;48.952;9.506;2023-02-18T08:08:32;98637.72;;;11.77;81.23
7802;BME280;3945;48.952;9.506;2023-02-18T08:10:59;98630.09;;;11.80;81.10
7802;BME280;3945;48.952;9.506;2023-02-18T08:13:28;98628.78;;;11.83;80.88
7802;BME280;3945;48.952;9.506;2023-02-18T08:15:54;98627.75;;;11.84;80.52
7802;BME280;3945;48.952;9.506;2023-02-18T08:18:21;98633.44;;;11.87;80.53
7802;BME280;3945;48.952;9.506;2023-02-18T08:20:48;98631.34;;;11.89;80.66
7802;BME280;3945;48.952;9.506;2023-02-18T08:23:17;98627.41;;;11.92;80.27
7802;BME280;3945;48.952;9.506;2023-02-18T08:25:44;98634.25;;;11.99;80.29
7802;BME280;3945;48.952;9.506;2023-02-18T08:28:11;98626.34;;;12.04;79.51
7802;BME280;3945;48.952;9.506;2023-02-18T08:30:39;98615.47;;;12.06;79.94
7802;BME280;3945;48.952;9.506;2023-02-18T08:33:09;98617.19;;;12.12;79.67
7802;BME280;3945;48.952;9.506;2023-02-18T08:35:35;98615.22;;;12.19;79.53
7802;BME280;3945;48.952;9.506;2023-02-18T08:38:01;98610.00;;;12.24;79.93
7802;BME280;3945;48.952;9.506;2023-02-18T08:40:28;98610.34;;;12.28;79.86
7802;BME280;3945;48.952;9.506;2023-02-18T08:42:54;98614.16;;;12.32;79.37
7802;BME280;3945;48.952;9.506;2023-02-18T08:45:20;98612.63;;;12.36;79.24
7802;BME280;3945;48.952;9.506;2023-02-18T08:47:48;98617.25;;;12.40;78.93
7802;BME280;3945;48.952;9.506;2023-02-18T08:50:14;98609.13;;;12.47;78.93
7802;BME280;3945;48.952;9.506;2023-02-18T08:52:41;98602.16;;;12.58;78.87
7802;BME280;3945;48.952;9.506;2023-02-18T08:55:07;98602.78;;;12.76;77.75
7802;BME280;3945;48.952;9.506;2023-02-18T08:57:34;98606.69;;;12.85;77.03
7802;BME280;3945;48.952;9.506;2023-02-18T09:00:00;98600.97;;;12.94;76.03
7802;BME280;3945;48.952;9.506;2023-02-18T09:02:26;98604.44;;;12.94;75.75
7802;BME280;3945;48.952;9.506;2023-02-18T09:04:54;98610.94;;;12.98;76.70
7802;BME280;3945;48.952;9.506;2023-02-18T09:07:21;98607.78;;;13.01;75.68
7802;BME280;3945;48.952;9.506;2023-02-18T09:09:47;98598.16;;;13.00;76.18
7802;BME280;3945;48.952;9.506;2023-02-18T09:12:13;98598.50;;;13.04;75.91
7802;BME280;3945;48.952;9.506;2023-02-18T09:14:40;98594.19;;;13.03;76.22
7802;BME280;3945;48.952;9.506;2023-02-18T09:17:06;98588.84;;;13.03;75.94
7802;BME280;3945;48.952;9.506;2023-02-18T09:19:32;98589.66;;;13.03;75.86
7802;BME280;3945;48.952;9.506;2023-02-18T09:22:00;98585.38;;;13.02;76.23
7802;BME280;3945;48.952;9.506;2023-02-18T09:24:26;98579.53;;;13.05;76.29
7802;BME280;3945;48.952;9.506;2023-02-18T09:26:53;98587.88;;;13.09;75.62
7802;BME280;3945;48.952;9.506;2023-02-18T09:29:19;98582.84;;;13.12;75.32
7802;BME280;3945;48.952;9.506;2023-02-18T09:31:45;98577.06;;;13.15;76.03
7802;BME280;3945;48.952;9.506;2023-02-18T09:34:12;98583.31;;;13.21;75.58
7802;BME280;3945;48.952;9.506;2023-02-18T09:36:38;98582.69;;;13.31;75.53
7802;BME280;3945;48.952;9.506;2023-02-18T09:39:06;98575.31;;;13.38;75.52
7802;BME280;3945;48.952;9.506;2023-02-18T09:41:33;98569.81;;;13.44;74.69
7802;BME280;3945;48.952;9.506;2023-02-18T09:44:03;98558.78;;;13.57;74.14
7802;BME280;3945;48.952;9.506;2023-02-18T09:46:31;98557.97;;;13.74;73.12
7802;BME280;3945;48.952;9.506;2023-02-18T09:49:00;98563.38;;;13.79;73.46
7802;BME280;3945;48.952;9.506;2023-02-18T09:51:27;98557.59;;;13.87;72.30
7802;BME280;3945;48.952;9.506;2023-02-18T09:53:53;98549.59;;;13.87;72.18
7802;BME280;3945;48.952;9.506;2023-02-18T09:56:22;98566.59;;;13.97;72.15
7802;BME280;3945;48.952;9.506;2023-02-18T09:58:48;98557.31;;;14.05;71.28
7802;BME280;3945;48.952;9.506;2023-02-18T10:01:17;98560.31;;;14.08;72.29
7802;BME280;3945;48.952;9.506;2023-02-18T10:03:45;98563.63;;;14.16;71.58
7802;BME280;3945;48.952;9.506;2023-02-18T10:06:15;98557.31;;;14.27;71.52
7802;BME280;3945;48.952;9.506;2023-02-18T10:08:43;98555.56;;;14.32;71.14
7802;BME280;3945;48.952;9.506;2023-02-18T10:11:11;98566.25;;;14.32;69.97
7802;BME280;3945;48.952;9.506;2023-02-18T10:13:42;98564.47;;;14.38;70.02
7802;BME280;3945;48.952;9.506;2023-02-18T10:16:09;98567.38;;;14.36;69.47
7802;BME280;3945;48.952;9.506;2023-02-18T10:18:41;98569.47;;;14.34;69.50
7802;BME280;3945;48.952;9.506;2023-02-18T10:21:08;98579.25;;;14.24;68.87
7802;BME280;3945;48.952;9.506;2023-02-18T10:23:36;98581.88;;;14.19;69.62
7802;BME280;3945;48.952;9.506;2023-02-18T10:26:04;98591.03;;;14.23;69.15
7802;BME280;3945;48.952;9.506;2023-02-18T10:28:32;98588.00;;;14.19;69.82
7802;BME280;3945;48.952;9.506;2023-02-18T10:31:02;98591.56;;;14.03;70.28
7802;BME280;3945;48.952;9.506;2023-02-18T10:33:32;98603.31;;;14.02;70.46
7802;BME280;3945;48.952;9.506;2023-02-18T10:36:01;98583.59;;;14.08;70.33
7802;BME280;3945;48.952;9.506;2023-02-18T10:38:34;98584.41;;;14.08;69.66
7802;BME280;3945;48.952;9.506;2023-02-18T10:41:06;98591.16;;;14.11;69.87
7802;BME280;3945;48.952;9.506;2023-02-18T10:43:36;98591.38;;;14.10;69.92
7802;BME280;3945;48.952;9.506;2023-02-18T10:46:10;98593.56;;;14.13;69.24
7802;BME280;3945;48.952;9.506;2023-02-18T10:48:43;98589.53;;;14.10;68.91
7802;BME280;3945;48.952;9.506;2023-02-18T10:51:14;98581.25;;;14.12;68.40
7802;BME280;3945;48.952;9.506;2023-02-18T10:53:42;98594.13;;;14.15;68.08
7802;BME280;3945;48.952;9.506;2023-02-18T10:56:12;98588.19;;;14.13;68.22
7802;BME280;3945;48.952;9.506;2023-02-18T10:58:59;98590.00;;;14.07;68.00
7802;BME280;3945;48.952;9.506;2023-02-18T11:01:27;98583.53;;;14.03;68.31
7802;BME280;3945;48.952;9.506;2023-02-18T11:04:02;98580.53;;;13.99;68.56
7802;BME280;3945;48.952;9.506;2023-02-18T11:06:30;98567.38;;;13.98;68.69
7802;BME280;3945;48.952;9.506;2023-02-18T11:08:57;98558.81;;;13.96;68.51
7802;BME280;3945;48.952;9.506;2023-02-18T11:11:27;98564.97;;;13.96;69.57
7802;BME280;3945;48.952;9.506;2023-02-18T11:13:56;98566.59;;;13.97;69.23
7802;BME280;3945;48.952;9.506;2023-02-18T11:16:23;98560.16;;;13.98;69.83
7802;BME280;3945;48.952;9.506;2023-02-18T11:19:02;98555.16;;;14.02;70.00
7802;BME280;3945;48.952;9.506;2023-02-18T11:21:30;98558.13;;;14.05;70.24
7802;BME280;3945;48.952;9.506;2023-02-18T11:24:05;98556.25;;;14.06;70.17
7802;BME280;3945;48.952;9.506;2023-02-18T11:26:32;98548.00;;;14.07;69.26
7802;BME280;3945;48.952;9.506;2023-02-18T11:29:00;98549.38;;;14.10;69.76
7802;BME280;3945;48.952;9.506;2023-02-18T11:31:30;98540.78;;;14.08;69.67
7802;BME280;3945;48.952;9.506;2023-02-18T11:33:59;98554.63;;;14.05;69.67
7802;BME280;3945;48.952;9.506;2023-02-18T11:36:29;98546.13;;;14.08;69.81
7802;BME280;3945;48.952;9.506;2023-02-18T11:38:56;98546.94;;;14.08;69.70
7802;BME280;3945;48.952;9.506;2023-02-18T11:41:28;98540.19;;;14.06;69.07
7802;BME280;3945;48.952;9.506;2023-02-18T11:43:55;98534.03;;;14.05;68.37
7802;BME280;3945;48.952;9.506;2023-02-18T11:46:23;98556.78;;;14.03;68.93
7802;BME280;3945;48.952;9.506;2023-02-18T11:48:51;98539.38;;;14.05;68.80
7802;BME280;3945;48.952;9.506;2023-02-18T11:51:18;98557.31;;;14.05;68.31
7802;BME280;3945;48.952;9.506;2023-02-18T11:53:56;98547.19;;;14.07;68.90
7802;BME280;3945;48.952;9.506;2023-02-18T11:56:24;98547.41;;;14.05;69.32
7802;BME280;3945;48.952;9.506;2023-02-18T11:58:50;98549.78;;;14.02;68.78
7802;BME280;3945;48.952;9.506;2023-02-18T12:01:20;98539.38;;;14.05;69.03
7802;BME280;3945;48.952;9.506;2023-02-18T12:03:51;98540.72;;;14.03;69.05
7802;BME280;3945;48.952;9.506;2023-02-18T12:06:19;98539.09;;;14.02;68.52
7802;BME280;3945;48.952;9.506;2023-02-18T12:08:50;98544.94;;;13.99;68.92
7802;BME280;3945;48.952;9.506;2023-02-18T12:11:20;98542.75;;;13.96;69.23
7802;BME280;3945;48.952;9.506;2023-02-18T12:13:49;98526.88;;;13.89;69.00
7802;BME280;3945;48.952;9.506;2023-02-18T12:16:17;98541.06;;;13.90;69.24
7802;BME280;3945;48.952;9.506;2023-02-18T12:18:48;98519.81;;;13.83;68.56
7802;BME280;3945;48.952;9.506;2023-02-18T12:21:18;98534.81;;;13.84;69.34
7802;BME280;3945;48.952;9.506;2023-02-18T12:23:55;98523.31;;;13.84;69.12
7802;BME280;3945;48.952;9.506;2023-02-18T12:26:27;98529.66;;;13.78;69.46
7802;BME280;3945;48.952;9.506;2023-02-18T12:29:06;98525.94;;;13.79;69.65
7802;BME280;3945;48.952;9.506;2023-02-18T12:31:40;98523.81;;;13.81;70.11
7802;BME280;3945;48.952;9.506;2023-02-18T12:34:19;98524.88;;;13.80;69.64
7802;BME280;3945;48.952;9.506;2023-02-18T12:36:55;98524.63;;;13.81;69.84
7802;BME280;3945;48.952;9.506;2023-02-18T12:39:28;98516.84;;;13.80;69.32
7802;BME280;3945;48.952;9.506;2023-02-18T12:42:03;98513.69;;;13.83;69.16
7802;BME280;3945;48.952;9.506;2023-02-18T12:44:36;98516.38;;;13.83;69.34
7802;BME280;3945;48.952;9.506;2023-02-18T12:47:19;98507.53;;;13.82;69.15
7802;BME280;3945;48.952;9.506;2023-02-18T12:52:38;98500.22;;;13.78;68.78
7802;BME280;3945;48.952;9.506;2023-02-18T12:55:23;98488.97;;;13.76;69.66
7802;BME280;3945;48.952;9.506;2023-02-18T12:57:54;98484.75;;;13.80;68.83
7802;BME280;3945;48.952;9.506;2023-02-18T13:00:36;98496.06;;;13.87;68.88
7802;BME280;3945;48.952;9.506;2023-02-18T13:03:16;98499.94;;;13.96;69.07
7802;BME280;3945;48.952;9.506;2023-02-18T13:05:46;98499.00;;;14.07;68.23
7802;BME280;3945;48.952;9.506;2023-02-18T13:08:21;98495.22;;;14.03;67.92
7802;BME280;3945;48.952;9.506;2023-02-18T13:11:00;98504.78;;;13.99;68.52
7802;BME280;3945;48.952;9.506;2023-02-18T13:13:30;98496.28;;;14.02;68.35
7802;BME280;3945;48.952;9.506;2023-02-18T13:16:01;98490.34;;;14.00;68.69
7802;BME280;3945;48.952;9.506;2023-02-18T13:18:29;98496.75;;;13.99;68.20
7802;BME280;3945;48.952;9.506;2023-02-18T13:20:58;98487.88;;;13.93;68.14
7802;BME280;3945;48.952;9.506;2023-02-18T13:23:26;98494.78;;;13.89;68.25
7802;BME280;3945;48.952;9.506;2023-02-18T13:25:55;98476.78;;;13.85;68.20
7802;BME280;3945;48.952;9.506;2023-02-18T13:28:23;98480.03;;;13.87;68.67
7802;BME280;3945;48.952;9.506;2023-02-18T13:30:55;98471.66;;;13.83;68.86
7802;BME280;3945;48.952;9.506;2023-02-18T13:33:26;98469.25;;;13.82;69.53
7802;BME280;3945;48.952;9.506;2023-02-18T13:35:55;98471.38;;;13.80;69.17
7802;BME280;3945;48.952;9.506;2023-02-18T13:38:48;98468.22;;;13.83;68.77